sensor_id;sensor_type;location;lat;lon;timestamp;P1;durP1;ratioP1;P2;durP2;ratioP2
54539;SDS011;40438;52.992;18.604;2022-10-18T00:02:13;32.35;;;16.08;;
54539;SDS011;40438;52.992;18.604;2022-10-18T00:04:39;35.05;;;16.80;;
54539;SDS011;40438;52.992;18.604;2022-10-18T00:07:04;32.05;;;16.15;;
54539;SDS011;40438;52.992;18.604;2022-10-18T00:09:30;32.20;;;16.90;;
54539;SDS011;40438;52.992;18.604;2022-10-18T00:11:58;35.95;;;17.33;;
54539;SDS011;40438;52.992;18.604;2022-10-18T00:14:23;34.85;;;16.38;;
54539;SDS011;40438;52.992;18.604;2022-10-18T00:16:49;38.50;;;16.45;;
54539;SDS011;40438;52.992;18.604;2022-10-18T00:19:15;30.05;;;15.70;;
54539;SDS011;40438;52.992;18.604;2022-10-18T00:21:41;29.58;;;15.98;;
54539;SDS011;40438;52.992;18.604;2022-10-18T00:24:07;40.42;;;17.75;;
54539;SDS011;40438;52.992;18.604;2022-10-18T00:26:33;39.10;;;17.42;;
54539;SDS011;40438;52.992;18.604;2022-10-18T00:29:02;36.33;;;16.30;;
54539;SDS011;40438;52.992;18.604;2022-10-18T00:31:29;31.63;;;15.77;;
54539;SDS011;40438;52.992;18.604;2022-10-18T00:33:58;33.95;;;16.98;;
54539;SDS011;40438;52.992;18.604;2022-10-18T00:36:25;35.10;;;15.98;;
54539;SDS011;40438;52.992;18.604;2022-10-18T00:38:52;30.60;;;15.60;;
54539;SDS011;40438;52.992;18.604;2022-10-18T00:41:20;37.95;;;16.67;;
54539;SDS011;40438;52.992;18.604;2022-10-18T00:43:51;32.25;;;16.48;;
54539;SDS011;40438;52.992;18.604;2022-10-18T00:46:20;31.58;;;15.75;;
54539;SDS011;40438;52.992;18.604;2022-10-18T00:48:46;30.00;;;16.17;;
54539;SDS011;40438;52.992;18.604;2022-10-18T00:51:13;35.35;;;15.88;;
54539;SDS011;40438;52.992;18.604;2022-10-18T00:53:40;28.33;;;15.75;;
54539;SDS011;40438;52.992;18.604;2022-10-18T00:56:06;30.65;;;17.05;;
54539;SDS011;40438;52.992;18.604;2022-10-18T00:58:32;35.78;;;16.67;;
54539;SDS011;40438;52.992;18.604;2022-10-18T01:00:59;38.30;;;16.55;;
54539;SDS011;40438;52.992;18.604;2022-10-18T01:03:26;34.67;;;16.27;;
54539;SDS011;40438;52.992;18.604;2022-10-18T01:05:51;35.28;;;16.92;;
54539;SDS011;40438;52.992;18.604;2022-10-18T01:11:28;35.42;;;17.33;;
54539;SDS011;40438;52.992;18.604;2022-10-18T01:14:10;29.10;;;15.15;;
54539;SDS011;40438;52.992;18.604;2022-10-18T01:16:47;32.03;;;16.25;;
54539;SDS011;40438;52.992;18.604;2022-10-18T01:19:27;39.42;;;17.98;;
54539;SDS011;40438;52.992;18.604;2022-10-18T01:22:08;43.42;;;21.52;;
54539;SDS011;40438;52.992;18.604;2022-10-18T01:24:49;41.47;;;18.30;;
54539;SDS011;40438;52.992;18.604;2022-10-18T01:27:45;38.65;;;18.10;;
54539;SDS011;40438;52.992;18.604;2022-10-18T01:33:16;35.08;;;16.85;;
54539;SDS011;40438;52.992;18.604;2022-10-18T01:35:47;36.17;;;17.20;;
54539;SDS011;40438;52.992;18.604;2022-10-18T01:38:17;41.78;;;19.10;;
54539;SDS011;40438;52.992;18.604;2022-10-18T01:40:46;44.25;;;20.77;;
54539;SDS011;40438;52.992;18.604;2022-10-18T01:43:14;38.30;;;19.27;;
54539;SDS011;40438;52.992;18.604;2022-10-18T01:45:43;46.63;;;21.63;;
54539;SDS011;40438;52.992;18.604;2022-10-18T01:48:10;42.53;;;21.65;;
54539;SDS011;40438;52.992;18.604;2022-10-18T01:50:38;43.78;;;20.02;;
54539;SDS011;40438;52.992;18.604;2022-10-18T01:53:04;40.35;;;19.67;;
54539;SDS011;40438;52.992;18.604;2022-10-18T01:55:30;43.38;;;20.95;;
54539;SDS011;40438;52.992;18.604;2022-10-18T01:58:02;40.72;;;20.08;;
54539;SDS011;40438;52.992;18.604;2022-10-18T02:00:34;47.58;;;21.73;;
54539;SDS011;40438;52.992;18.604;2022-10-18T02:03:05;40.55;;;19.20;;
54539;SDS011;40438;52.992;18.604;2022-10-18T02:05:42;39.47;;;21.73;;
54539;SDS011;40438;52.992;18.604;2022-10-18T02:08:15;50.83;;;23.00;;
54539;SDS011;40438;52.992;18.604;2022-10-18T02:10:51;47.42;;;24.20;;
54539;SDS011;40438;52.992;18.604;2022-10-18T02:13:20;49.22;;;24.58;;
54539;SDS011;40438;52.992;18.604;2022-10-18T02:15:49;58.47;;;29.67;;
54539;SDS011;40438;52.992;18.604;2022-10-18T02:18:21;60.13;;;28.02;;
54539;SDS011;40438;52.992;18.604;2022-10-18T02:20:49;56.15;;;26.73;;
54539;SDS011;40438;52.992;18.604;2022-10-18T02:23:16;53.08;;;25.35;;
54539;SDS011;40438;52.992;18.604;2022-10-18T02:25:47;49.15;;;24.70;;
54539;SDS011;40438;52.992;18.604;2022-10-18T02:28:13;57.22;;;26.00;;
54539;SDS011;40438;52.992;18.604;2022-10-18T02:30:39;59.03;;;24.15;;
54539;SDS011;40438;52.992;18.604;2022-10-18T02:33:16;64.80;;;31.02;;
54539;SDS011;40438;52.992;18.604;2022-10-18T02:35:48;70.18;;;32.45;;
54539;SDS011;40438;52.992;18.604;2022-10-18T02:38:18;88.95;;;40.25;;
54539;SDS011;40438;52.992;18.604;2022-10-18T02:40:45;56.72;;;27.27;;
54539;SDS011;40438;52.992;18.604;2022-10-18T02:43:10;42.72;;;21.50;;
54539;SDS011;40438;52.992;18.604;2022-10-18T02:45:38;45.13;;;21.35;;
54539;SDS011;40438;52.992;18.604;2022-10-18T02:48:04;42.35;;;20.38;;
54539;SDS011;40438;52.992;18.604;2022-10-18T02:50:30;43.22;;;19.65;;
54539;SDS011;40438;52.992;18.604;2022-10-18T02:52:57;36.55;;;17.85;;
54539;SDS011;40438;52.992;18.604;2022-10-18T02:55:23;37.00;;;18.73;;
54539;SDS011;40438;52.992;18.604;2022-10-18T02:57:49;40.22;;;18.45;;
54539;SDS011;40438;52.992;18.604;2022-10-18T03:00:15;38.53;;;19.17;;
54539;SDS011;40438;52.992;18.604;2022-10-18T03:02:40;39.75;;;18.95;;
54539;SDS011;40438;52.992;18.604;2022-10-18T03:05:06;40.80;;;18.75;;
54539;SDS011;40438;52.992;18.604;2022-10-18T03:07:32;45.53;;;19.75;;
54539;SDS011;40438;52.992;18.604;2022-10-18T03:09:59;35.78;;;17.63;;
54539;SDS011;40438;52.992;18.604;2022-10-18T03:12:25;42.70;;;17.92;;
54539;SDS011;40438;52.992;18.604;2022-10-18T03:14:51;41.60;;;17.38;;
54539;SDS011;40438;52.992;18.604;2022-10-18T03:17:16;33.80;;;17.23;;
54539;SDS011;40438;52.992;18.604;2022-10-18T03:19:42;36.95;;;17.88;;
54539;SDS011;40438;52.992;18.604;2022-10-18T03:22:08;39.22;;;17.95;;
54539;SDS011;40438;52.992;18.604;2022-10-18T03:24:34;40.83;;;17.73;;
54539;SDS011;40438;52.992;18.604;2022-10-18T03:27:01;36.78;;;17.23;;
54539;SDS011;40438;52.992;18.604;2022-10-18T03:29:26;38.13;;;18.30;;
54539;SDS011;40438;52.992;18.604;2022-10-18T03:31:52;34.45;;;17.08;;
54539;SDS011;40438;52.992;18.604;2022-10-18T03:34:18;43.72;;;18.77;;
54539;SDS011;40438;52.992;18.604;2022-10-18T03:36:44;39.08;;;18.88;;
54539;SDS011;40438;52.992;18.604;2022-10-18T03:39:10;38.83;;;18.90;;
54539;SDS011;40438;52.992;18.604;2022-10-18T03:41:35;35.58;;;18.20;;
54539;SDS011;40438;52.992;18.604;2022-10-18T03:44:03;44.25;;;19.52;;
54539;SDS011;40438;52.992;18.604;2022-10-18T03:46:28;46.15;;;19.02;;
54539;SDS011;40438;52.992;18.604;2022-10-18T03:48:54;40.10;;;18.40;;
54539;SDS011;40438;52.992;18.604;2022-10-18T03:51:20;33.75;;;17.50;;
54539;SDS011;40438;52.992;18.604;2022-10-18T03:53:46;40.50;;;18.55;;
54539;SDS011;40438;52.992;18.604;2022-10-18T03:56:11;39.03;;;17.67;;
54539;SDS011;40438;52.992;18.604;2022-10-18T03:58:37;37.47;;;18.77;;
54539;SDS011;40438;52.992;18.604;2022-10-18T04:01:04;44.05;;;18.95;;
54539;SDS011;40438;52.992;18.604;2022-10-18T04:03:30;37.80;;;17.45;;
54539;SDS011;40438;52.992;18.604;2022-10-18T04:05:55;40.13;;;18.15;;
54539;SDS011;40438;52.992;18.604;2022-10-18T04:08:21;38.05;;;18.75;;
54539;SDS011;40438;52.992;18.604;2022-10-18T04:10:47;40.90;;;18.88;;
54539;SDS011;40438;52.992;18.604;2022-10-18T04:13:13;46.85;;;20.67;;
54539;SDS011;40438;52.992;18.604;2022-10-18T04:15:38;46.90;;;21.95;;
54539;SDS011;40438;52.992;18.604;2022-10-18T04:18:05;43.75;;;20.35;;
54539;SDS011;40438;52.992;18.604;2022-10-18T04:20:31;42.53;;;21.13;;
54539;SDS011;40438;52.992;18.604;2022-10-18T04:22:57;37.55;;;20.40;;
54539;SDS011;40438;52.992;18.604;2022-10-18T04:25:23;43.55;;;21.63;;
54539;SDS011;40438;52.992;18.604;2022-10-18T04:27:49;40.97;;;20.67;;
54539;SDS011;40438;52.992;18.604;2022-10-18T04:30:14;49.00;;;23.10;;
54539;SDS011;40438;52.992;18.604;2022-10-18T04:32:40;46.70;;;21.52;;
54539;SDS011;40438;52.992;18.604;2022-10-18T04:35:08;40.78;;;19.85;;
54539;SDS011;40438;52.992;18.604;2022-10-18T04:37:34;35.72;;;17.92;;
54539;SDS011;40438;52.992;18.604;2022-10-18T04:40:00;40.28;;;18.65;;
54539;SDS011;40438;52.992;18.604;2022-10-18T04:42:25;40.85;;;19.63;;
54539;SDS011;40438;52.992;18.604;2022-10-18T04:44:51;45.45;;;19.20;;
54539;SDS011;40438;52.992;18.604;2022-10-18T04:47:17;42.63;;;19.60;;
54539;SDS011;40438;52.992;18.604;2022-10-18T04:49:43;42.45;;;19.75;;
54539;SDS011;40438;52.992;18.604;2022-10-18T04:52:10;41.40;;;19.52;;
54539;SDS011;40438;52.992;18.604;2022-10-18T04:54:36;38.53;;;18.73;;
54539;SDS011;40438;52.992;18.604;2022-10-18T04:57:02;43.53;;;20.85;;
54539;SDS011;40438;52.992;18.604;2022-10-18T04:59:28;44.60;;;20.48;;
54539;SDS011;40438;52.992;18.604;2022-10-18T05:01:53;39.25;;;20.48;;
54539;SDS011;40438;52.992;18.604;2022-10-18T05:04:19;38.78;;;19.85;;
54539;SDS011;40438;52.992;18.604;2022-10-18T05:06:45;39.08;;;19.23;;
54539;SDS011;40438;52.992;18.604;2022-10-18T05:09:12;40.78;;;19.45;;
54539;SDS011;40438;52.992;18.604;2022-10-18T05:11:38;39.22;;;19.60;;
54539;SDS011;40438;52.992;18.604;2022-10-18T05:14:04;39.95;;;18.85;;
54539;SDS011;40438;52.992;18.604;2022-10-18T05:16:29;37.97;;;19.58;;
54539;SDS011;40438;52.992;18.604;2022-10-18T05:18:55;40.33;;;20.33;;
54539;SDS011;40438;52.992;18.604;2022-10-18T05:21:21;41.30;;;19.70;;
54539;SDS011;40438;52.992;18.604;2022-10-18T05:23:46;37.33;;;20.20;;
54539;SDS011;40438;52.992;18.604;2022-10-18T05:26:14;39.65;;;19.42;;
54539;SDS011;40438;52.992;18.604;2022-10-18T05:28:39;39.58;;;20.27;;
54539;SDS011;40438;52.992;18.604;2022-10-18T05:31:05;41.97;;;20.42;;
54539;SDS011;40438;52.992;18.604;2022-10-18T05:33:33;44.80;;;19.08;;
54539;SDS011;40438;52.992;18.604;2022-10-18T05:35:59;38.60;;;18.55;;
54539;SDS011;40438;52.992;18.604;2022-10-18T05:38:26;42.55;;;19.25;;
54539;SDS011;40438;52.992;18.604;2022-10-18T05:40:52;43.75;;;20.17;;
54539;SDS011;40438;52.992;18.604;2022-10-18T05:43:19;43.20;;;19.40;;
54539;SDS011;40438;52.992;18.604;2022-10-18T05:45:48;43.28;;;20.65;;
54539;SDS011;40438;52.992;18.604;2022-10-18T05:48:13;40.42;;;19.88;;
54539;SDS011;40438;52.992;18.604;2022-10-18T05:50:39;40.30;;;19.52;;
54539;SDS011;40438;52.992;18.604;2022-10-18T05:53:05;38.28;;;19.65;;
54539;SDS011;40438;52.992;18.604;2022-10-18T05:55:31;38.95;;;20.30;;
54539;SDS011;40438;52.992;18.604;2022-10-18T05:57:56;46.03;;;20.88;;
54539;SDS011;40438;52.992;18.604;2022-10-18T06:00:24;48.78;;;21.13;;
54539;SDS011;40438;52.992;18.604;2022-10-18T06:02:51;41.72;;;22.02;;
54539;SDS011;40438;52.992;18.604;2022-10-18T06:05:17;38.47;;;20.88;;
54539;SDS011;40438;52.992;18.604;2022-10-18T06:07:42;41.30;;;21.13;;
54539;SDS011;40438;52.992;18.604;2022-10-18T06:10:08;43.58;;;20.40;;
54539;SDS011;40438;52.992;18.604;2022-10-18T06:12:34;44.13;;;19.63;;
54539;SDS011;40438;52.992;18.604;2022-10-18T06:15:00;36.00;;;19.48;;
54539;SDS011;40438;52.992;18.604;2022-10-18T06:17:27;37.83;;;19.90;;
54539;SDS011;40438;52.992;18.604;2022-10-18T06:19:53;39.08;;;19.40;;
54539;SDS011;40438;52.992;18.604;2022-10-18T06:22:18;41.80;;;19.42;;
54539;SDS011;40438;52.992;18.604;2022-10-18T06:24:44;42.65;;;19.55;;
54539;SDS011;40438;52.992;18.604;2022-10-18T06:27:10;39.22;;;18.27;;
54539;SDS011;40438;52.992;18.604;2022-10-18T06:29:36;38.92;;;19.40;;
54539;SDS011;40438;52.992;18.604;2022-10-18T06:32:03;40.85;;;19.52;;
54539;SDS011;40438;52.992;18.604;2022-10-18T06:34:30;41.67;;;19.13;;
54539;SDS011;40438;52.992;18.604;2022-10-18T06:36:56;38.95;;;19.00;;
54539;SDS011;40438;52.992;18.604;2022-10-18T06:39:22;40.88;;;18.25;;
54539;SDS011;40438;52.992;18.604;2022-10-18T06:41:48;35.15;;;18.60;;
54539;SDS011;40438;52.992;18.604;2022-10-18T06:44:18;38.92;;;19.05;;
54539;SDS011;40438;52.992;18.604;2022-10-18T06:46:44;38.80;;;19.15;;
54539;SDS011;40438;52.992;18.604;2022-10-18T06:49:11;40.88;;;18.58;;
54539;SDS011;40438;52.992;18.604;2022-10-18T06:51:40;43.50;;;18.98;;
54539;SDS011;40438;52.992;18.604;2022-10-18T06:54:06;39.92;;;20.33;;
54539;SDS011;40438;52.992;18.604;2022-10-18T06:56:32;37.00;;;18.45;;
54539;SDS011;40438;52.992;18.604;2022-10-18T06:58:58;34.88;;;16.88;;
54539;SDS011;40438;52.992;18.604;2022-10-18T07:01:23;33.80;;;16.92;;
54539;SDS011;40438;52.992;18.604;2022-10-18T07:03:51;35.25;;;17.98;;
54539;SDS011;40438;52.992;18.604;2022-10-18T07:06:17;48.88;;;19.92;;
54539;SDS011;40438;52.992;18.604;2022-10-18T07:08:45;49.85;;;19.05;;
54539;SDS011;40438;52.992;18.604;2022-10-18T07:11:13;35.88;;;18.42;;
54539;SDS011;40438;52.992;18.604;2022-10-18T07:13:39;35.95;;;17.98;;
54539;SDS011;40438;52.992;18.604;2022-10-18T07:16:06;40.35;;;18.45;;
54539;SDS011;40438;52.992;18.604;2022-10-18T07:18:33;37.65;;;18.65;;
54539;SDS011;40438;52.992;18.604;2022-10-18T07:21:00;35.10;;;18.17;;
54539;SDS011;40438;52.992;18.604;2022-10-18T07:23:26;39.67;;;19.42;;
54539;SDS011;40438;52.992;18.604;2022-10-18T07:25:53;35.92;;;18.45;;
54539;SDS011;40438;52.992;18.604;2022-10-18T07:28:19;36.05;;;18.70;;
54539;SDS011;40438;52.992;18.604;2022-10-18T07:30:45;34.30;;;17.90;;
54539;SDS011;40438;52.992;18.604;2022-10-18T07:33:10;34.40;;;18.77;;
54539;SDS011;40438;52.992;18.604;2022-10-18T07:35:36;34.75;;;17.08;;
54539;SDS011;40438;52.992;18.604;2022-10-18T07:38:02;35.70;;;17.30;;
54539;SDS011;40438;52.992;18.604;2022-10-18T07:40:28;39.65;;;18.35;;
54539;SDS011;40438;52.992;18.604;2022-10-18T07:42:55;37.47;;;18.67;;
54539;SDS011;40438;52.992;18.604;2022-10-18T07:45:20;32.65;;;17.45;;
54539;SDS011;40438;52.992;18.604;2022-10-18T07:47:46;36.08;;;18.77;;
54539;SDS011;40438;52.992;18.604;2022-10-18T07:50:12;36.35;;;18.85;;
54539;SDS011;40438;52.992;18.604;2022-10-18T07:52:37;43.50;;;18.40;;
54539;SDS011;40438;52.992;18.604;2022-10-18T07:55:03;38.17;;;18.13;;
54539;SDS011;40438;52.992;18.604;2022-10-18T07:57:29;40.13;;;18.17;;
54539;SDS011;40438;52.992;18.604;2022-10-18T07:59:56;36.88;;;18.25;;
54539;SDS011;40438;52.992;18.604;2022-10-18T08:02:22;33.28;;;18.23;;
54539;SDS011;40438;52.992;18.604;2022-10-18T08:04:48;38.30;;;17.77;;
54539;SDS011;40438;52.992;18.604;2022-10-18T08:07:14;41.33;;;19.30;;
54539;SDS011;40438;52.992;18.604;2022-10-18T08:09:40;35.00;;;18.38;;
54539;SDS011;40438;52.992;18.604;2022-10-18T08:12:05;38.92;;;19.48;;
54539;SDS011;40438;52.992;18.604;2022-10-18T08:14:31;38.80;;;18.95;;
54539;SDS011;40438;52.992;18.604;2022-10-18T08:16:58;34.60;;;17.70;;
54539;SDS011;40438;52.992;18.604;2022-10-18T08:19:24;33.63;;;17.25;;
54539;SDS011;40438;52.992;18.604;2022-10-18T08:21:50;36.60;;;16.95;;
54539;SDS011;40438;52.992;18.604;2022-10-18T08:24:15;32.42;;;17.65;;
54539;SDS011;40438;52.992;18.604;2022-10-18T08:26:41;39.03;;;18.17;;
54539;SDS011;40438;52.992;18.604;2022-10-18T08:29:07;39.28;;;18.35;;
54539;SDS011;40438;52.992;18.604;2022-10-18T08:31:33;40.85;;;19.17;;
54539;SDS011;40438;52.992;18.604;2022-10-18T08:34:00;39.83;;;19.05;;
54539;SDS011;40438;52.992;18.604;2022-10-18T08:36:26;46.10;;;20.25;;
54539;SDS011;40438;52.992;18.604;2022-10-18T08:38:51;40.03;;;19.23;;
54539;SDS011;40438;52.992;18.604;2022-10-18T08:44:16;43.70;;;18.90;;
54539;SDS011;40438;52.992;18.604;2022-10-18T08:46:45;41.58;;;21.13;;
54539;SDS011;40438;52.992;18.604;2022-10-18T08:49:17;36.45;;;18.17;;
54539;SDS011;40438;52.992;18.604;2022-10-18T08:51:48;39.35;;;18.55;;
54539;SDS011;40438;52.992;18.604;2022-10-18T08:54:17;34.53;;;17.42;;
54539;SDS011;40438;52.992;18.604;2022-10-18T08:56:53;46.58;;;19.52;;
54539;SDS011;40438;52.992;18.604;2022-10-18T08:59:22;42.00;;;19.38;;
54539;SDS011;40438;52.992;18.604;2022-10-18T09:01:58;38.70;;;18.83;;
54539;SDS011;40438;52.992;18.604;2022-10-18T09:04:39;44.05;;;19.42;;
54539;SDS011;40438;52.992;18.604;2022-10-18T09:07:14;40.30;;;19.67;;
54539;SDS011;40438;52.992;18.604;2022-10-18T09:09:52;40.67;;;18.38;;
54539;SDS011;40438;52.992;18.604;2022-10-18T09:12:31;40.10;;;20.40;;
54539;SDS011;40438;52.992;18.604;2022-10-18T09:15:15;41.15;;;18.02;;
54539;SDS011;40438;52.992;18.604;2022-10-18T09:17:45;37.72;;;18.23;;
54539;SDS011;40438;52.992;18.604;2022-10-18T09:20:24;35.50;;;17.80;;
54539;SDS011;40438;52.992;18.604;2022-10-18T09:22:53;35.50;;;17.83;;
54539;SDS011;40438;52.992;18.604;2022-10-18T09:25:22;33.30;;;17.40;;
54539;SDS011;40438;52.992;18.604;2022-10-18T09:27:51;37.55;;;17.90;;
54539;SDS011;40438;52.992;18.604;2022-10-18T09:30:30;31.42;;;17.75;;
54539;SDS011;40438;52.992;18.604;2022-10-18T09:33:08;36.95;;;18.77;;
54539;SDS011;40438;52.992;18.604;2022-10-18T09:35:51;30.67;;;17.23;;
54539;SDS011;40438;52.992;18.604;2022-10-18T09:38:21;41.92;;;18.17;;
54539;SDS011;40438;52.992;18.604;2022-10-18T09:40:51;34.28;;;16.70;;
54539;SDS011;40438;52.992;18.604;2022-10-18T09:43:20;33.70;;;16.90;;
54539;SDS011;40438;52.992;18.604;2022-10-18T09:45:48;35.22;;;17.17;;
54539;SDS011;40438;52.992;18.604;2022-10-18T09:48:17;34.33;;;16.45;;
54539;SDS011;40438;52.992;18.604;2022-10-18T09:50:47;33.85;;;16.92;;
54539;SDS011;40438;52.992;18.604;2022-10-18T09:53:19;29.45;;;16.23;;
54539;SDS011;40438;52.992;18.604;2022-10-18T09:55:56;37.33;;;17.58;;
54539;SDS011;40438;52.992;18.604;2022-10-18T09:58:26;33.47;;;17.23;;
54539;SDS011;40438;52.992;18.604;2022-10-18T10:01:01;32.92;;;15.45;;
54539;SDS011;40438;52.992;18.604;2022-10-18T10:03:33;36.03;;;17.70;;
54539;SDS011;40438;52.992;18.604;2022-10-18T10:06:13;34.00;;;16.38;;
54539;SDS011;40438;52.992;18.604;2022-10-18T10:08:41;41.80;;;18.52;;
54539;SDS011;40438;52.992;18.604;2022-10-18T10:11:13;39.90;;;18.75;;
54539;SDS011;40438;52.992;18.604;2022-10-18T10:13:51;42.25;;;20.77;;
54539;SDS011;40438;52.992;18.604;2022-10-18T10:16:20;38.78;;;19.90;;
54539;SDS011;40438;52.992;18.604;2022-10-18T10:18:49;32.78;;;17.20;;
54539;SDS011;40438;52.992;18.604;2022-10-18T10:21:18;34.45;;;17.63;;
54539;SDS011;40438;52.992;18.604;2022-10-18T10:23:45;32.05;;;18.30;;
54539;SDS011;40438;52.992;18.604;2022-10-18T10:26:21;31.15;;;16.13;;
54539;SDS011;40438;52.992;18.604;2022-10-18T10:28:48;27.88;;;15.35;;
54539;SDS011;40438;52.992;18.604;2022-10-18T10:31:15;27.27;;;15.25;;
54539;SDS011;40438;52.992;18.604;2022-10-18T10:33:44;30.58;;;15.10;;
54539;SDS011;40438;52.992;18.604;2022-10-18T10:36:15;31.00;;;16.50;;
54539;SDS011;40438;52.992;18.604;2022-10-18T10:38:43;33.15;;;15.13;;
54539;SDS011;40438;52.992;18.604;2022-10-18T10:41:16;28.55;;;16.00;;
54539;SDS011;40438;52.992;18.604;2022-10-18T10:43:44;31.80;;;15.63;;
54539;SDS011;40438;52.992;18.604;2022-10-18T10:46:10;33.90;;;15.75;;
54539;SDS011;40438;52.992;18.604;2022-10-18T10:48:40;36.65;;;16.52;;
54539;SDS011;40438;52.992;18.604;2022-10-18T10:51:11;30.00;;;15.18;;
54539;SDS011;40438;52.992;18.604;2022-10-18T10:53:42;29.27;;;15.05;;
54539;SDS011;40438;52.992;18.604;2022-10-18T10:56:20;35.40;;;16.05;;
54539;SDS011;40438;52.992;18.604;2022-10-18T10:58:49;30.35;;;15.35;;
54539;SDS011;40438;52.992;18.604;2022-10-18T11:01:18;32.65;;;14.85;;
54539;SDS011;40438;52.992;18.604;2022-10-18T11:03:49;29.02;;;15.57;;
54539;SDS011;40438;52.992;18.604;2022-10-18T11:12:07;33.97;;;15.90;;
54539;SDS011;40438;52.992;18.604;2022-10-18T11:14:41;30.88;;;15.75;;
54539;SDS011;40438;52.992;18.604;2022-10-18T11:17:13;34.42;;;16.10;;
54539;SDS011;40438;52.992;18.604;2022-10-18T11:22:37;25.20;;;13.25;;
54539;SDS011;40438;52.992;18.604;2022-10-18T11:25:09;30.50;;;14.88;;
54539;SDS011;40438;52.992;18.604;2022-10-18T11:27:39;28.08;;;15.00;;
54539;SDS011;40438;52.992;18.604;2022-10-18T11:30:24;30.42;;;14.98;;
54539;SDS011;40438;52.992;18.604;2022-10-18T11:32:59;29.00;;;15.30;;
54539;SDS011;40438;52.992;18.604;2022-10-18T11:38:04;28.42;;;14.02;;
54539;SDS011;40438;52.992;18.604;2022-10-18T11:40:43;25.67;;;13.45;;
54539;SDS011;40438;52.992;18.604;2022-10-18T11:43:19;25.98;;;12.82;;
54539;SDS011;40438;52.992;18.604;2022-10-18T11:45:51;25.38;;;13.40;;
54539;SDS011;40438;52.992;18.604;2022-10-18T11:51:03;25.02;;;12.48;;
54539;SDS011;40438;52.992;18.604;2022-10-18T11:53:40;22.40;;;12.38;;
54539;SDS011;40438;52.992;18.604;2022-10-18T11:56:14;25.35;;;12.88;;
54539;SDS011;40438;52.992;18.604;2022-10-18T11:58:55;23.20;;;12.63;;
54539;SDS011;40438;52.992;18.604;2022-10-18T12:01:33;23.85;;;12.30;;
54539;SDS011;40438;52.992;18.604;2022-10-18T12:04:03;22.00;;;11.98;;
54539;SDS011;40438;52.992;18.604;2022-10-18T12:06:38;20.45;;;11.63;;
54539;SDS011;40438;52.992;18.604;2022-10-18T12:09:08;18.80;;;11.70;;
54539;SDS011;40438;52.992;18.604;2022-10-18T12:11:44;20.88;;;11.18;;
54539;SDS011;40438;52.992;18.604;2022-10-18T12:14:17;23.33;;;11.57;;
54539;SDS011;40438;52.992;18.604;2022-10-18T12:16:48;19.13;;;10.13;;
54539;SDS011;40438;52.992;18.604;2022-10-18T12:19:16;20.40;;;10.40;;
54539;SDS011;40438;52.992;18.604;2022-10-18T12:21:44;17.67;;;9.00;;
54539;SDS011;40438;52.992;18.604;2022-10-18T12:24:11;15.88;;;8.68;;
54539;SDS011;40438;52.992;18.604;2022-10-18T12:26:40;15.57;;;8.55;;
54539;SDS011;40438;52.992;18.604;2022-10-18T12:29:11;18.70;;;9.07;;
54539;SDS011;40438;52.992;18.604;2022-10-18T12:31:46;18.67;;;8.95;;
54539;SDS011;40438;52.992;18.604;2022-10-18T12:34:21;15.55;;;7.90;;
54539;SDS011;40438;52.992;18.604;2022-10-18T12:37:01;13.38;;;7.07;;
54539;SDS011;40438;52.992;18.604;2022-10-18T12:39:46;14.95;;;7.03;;
54539;SDS011;40438;52.992;18.604;2022-10-18T12:42:23;13.30;;;7.22;;
54539;SDS011;40438;52.992;18.604;2022-10-18T12:44:59;15.35;;;7.47;;
54539;SDS011;40438;52.992;18.604;2022-10-18T12:47:26;14.10;;;7.45;;
54539;SDS011;40438;52.992;18.604;2022-10-18T12:49:54;15.80;;;8.00;;
54539;SDS011;40438;52.992;18.604;2022-10-18T12:52:22;14.77;;;8.18;;
54539;SDS011;40438;52.992;18.604;2022-10-18T12:54:59;17.52;;;8.90;;
54539;SDS011;40438;52.992;18.604;2022-10-18T12:57:59;17.33;;;8.35;;
54539;SDS011;40438;52.992;18.604;2022-10-18T13:03:38;15.68;;;7.82;;
54539;SDS011;40438;52.992;18.604;2022-10-18T13:06:20;19.17;;;9.27;;
54539;SDS011;40438;52.992;18.604;2022-10-18T13:08:47;14.00;;;7.78;;
54539;SDS011;40438;52.992;18.604;2022-10-18T13:11:33;16.38;;;7.88;;
54539;SDS011;40438;52.992;18.604;2022-10-18T13:14:05;18.20;;;8.05;;
54539;SDS011;40438;52.992;18.604;2022-10-18T13:16:52;16.38;;;8.57;;
54539;SDS011;40438;52.992;18.604;2022-10-18T13:19:25;14.02;;;8.35;;
54539;SDS011;40438;52.992;18.604;2022-10-18T13:22:05;14.75;;;7.53;;
54539;SDS011;40438;52.992;18.604;2022-10-18T13:24:40;12.48;;;7.68;;
54539;SDS011;40438;52.992;18.604;2022-10-18T13:27:17;19.25;;;8.70;;
54539;SDS011;40438;52.992;18.604;2022-10-18T13:30:10;15.13;;;8.27;;
54539;SDS011;40438;52.992;18.604;2022-10-18T13:32:49;15.65;;;8.52;;
54539;SDS011;40438;52.992;18.604;2022-10-18T13:35:40;13.27;;;8.20;;
54539;SDS011;40438;52.992;18.604;2022-10-18T13:41:12;21.15;;;9.23;;
54539;SDS011;40438;52.992;18.604;2022-10-18T13:56:02;19.30;;;9.52;;
54539;SDS011;40438;52.992;18.604;2022-10-18T13:58:42;26.15;;;11.10;;
54539;SDS011;40438;52.992;18.604;2022-10-18T14:01:20;18.20;;;10.80;;
54539;SDS011;40438;52.992;18.604;2022-10-18T14:06:59;21.42;;;10.30;;
54539;SDS011;40438;52.992;18.604;2022-10-18T14:09:28;21.42;;;11.18;;
54539;SDS011;40438;52.992;18.604;2022-10-18T14:12:00;25.85;;;12.40;;
54539;SDS011;40438;52.992;18.604;2022-10-18T14:14:34;24.10;;;12.70;;
54539;SDS011;40438;52.992;18.604;2022-10-18T14:17:06;23.33;;;12.23;;
54539;SDS011;40438;52.992;18.604;2022-10-18T14:19:41;22.65;;;13.43;;
54539;SDS011;40438;52.992;18.604;2022-10-18T14:22:12;25.95;;;12.50;;
54539;SDS011;40438;52.992;18.604;2022-10-18T14:24:44;25.38;;;13.30;;
54539;SDS011;40438;52.992;18.604;2022-10-18T14:27:16;24.70;;;13.27;;
54539;SDS011;40438;52.992;18.604;2022-10-18T14:29:42;25.73;;;12.80;;
54539;SDS011;40438;52.992;18.604;2022-10-18T14:32:09;24.73;;;12.57;;
54539;SDS011;40438;52.992;18.604;2022-10-18T14:34:42;24.33;;;12.88;;
54539;SDS011;40438;52.992;18.604;2022-10-18T14:37:12;25.80;;;12.70;;
54539;SDS011;40438;52.992;18.604;2022-10-18T14:39:50;28.25;;;13.38;;
54539;SDS011;40438;52.992;18.604;2022-10-18T14:42:18;29.25;;;12.40;;
54539;SDS011;40438;52.992;18.604;2022-10-18T14:44:46;28.00;;;13.00;;
54539;SDS011;40438;52.992;18.604;2022-10-18T14:47:13;24.17;;;12.75;;
54539;SDS011;40438;52.992;18.604;2022-10-18T14:49:42;32.90;;;14.70;;
54539;SDS011;40438;52.992;18.604;2022-10-18T14:52:10;28.15;;;13.70;;
54539;SDS011;40438;52.992;18.604;2022-10-18T14:54:39;28.65;;;14.23;;
54539;SDS011;40438;52.992;18.604;2022-10-18T14:57:05;27.83;;;14.00;;
54539;SDS011;40438;52.992;18.604;2022-10-18T14:59:32;28.55;;;15.23;;
54539;SDS011;40438;52.992;18.604;2022-10-18T15:02:09;27.13;;;14.50;;
54539;SDS011;40438;52.992;18.604;2022-10-18T15:04:39;31.70;;;15.70;;
54539;SDS011;40438;52.992;18.604;2022-10-18T15:07:13;26.48;;;14.23;;
54539;SDS011;40438;52.992;18.604;2022-10-18T15:12:06;23.60;;;13.52;;